Yamba, New South Wales

3:10 AM AEST on June 04, 2015 (GMT +1000)
Grafton | | Change Station
CLOSE
Current Station
Airport
Location: Grafton Airport,
Elevation: 108 ft
Nearby Weather Stations

Elev 108 ft 29.76 °S, 153.03 °E | Updated 17 minutes ago

Clear
Clear
41 °F
Feels Like 41 °F
N
0
Wind Variable Wind from North

Today
High -- | Low -- °F
--% Chance of Precip.
Yesterday
High -- | Low -- °F
Precip. -- in
6:34 AM 4:55 PM
Full, 99% visible
Pressure 30.15 in
Visibility 6.2 miles
Clouds
Dew Point 41 °F
Humidity 100%
Rainfall 0.00 in
Snow Depth Not available.
UV Not available.
Pollen Not available.
Air Quality Not available.
Flu Activity Not available.
SPECI YGFN 031653Z AUTO 00000KT 9999 // NCD 05/05 Q1021

More Conditions Fewer Conditions

Pressure 30.15 in
Visibility 6.2 miles
Clouds
Dew Point 41 °F
Humidity 100%
Rainfall 0.00 in
Snow Depth Not available.
UV Not available.
Pollen Not available.
Air Quality Not available.
Flu Activity Not available.
SPECI YGFN 031653Z AUTO 00000KT 9999 // NCD 05/05 Q1021

More Conditions Fewer Conditions

10-Day Weather Forecast

×

Almanac

Astronomy

Jun. 04, 2015 Rise Set
Actual Time
Civil Twilight
Nautical Twilight
Astronomical Twilight
Moon
Length of Visible Light
Length of Day
Tomorrow will be .
, % of the Moon is Illuminated

Today's Extremes

Country Highs Country Lows

Community

WunderPhotos

Upload Photos

1,826,256 photos uploaded!

WunderBlogs® & News

Nearby

Air Quality

  Air Quality AQ Index Pollutant
Not available.

Snow Depth

Station Depth Elevation

Earthquake Activity

City Distance Mag. Time & Date
Minimum magnitude displayed is 2.5.

Coastal Water Temperatures

Place Temperature

Stations

Nearby Weather Stations

Station Location Temp. Windchill Dew Point Humidity Wind Precip. Elev Updated Type